Capitol Logistics 2530


KIND
Indianapolis International Airport
Indianapolis, Indiana, US
KMEM
Memphis International Airport
Memphis, Tennessee, US

Activity Log

Date Flight Route Aircraft Duration
11/22/2019 CPX2530 N0426F220 OOM5 PXV J131 HUMBO HYTHR2 B744 1h 18m
11/20/2019 CPX2530 OOM5 PXV RRUSH HYTHR2 B763 1h 13m
11/18/2019 CPX2530 OOM5 PXV RRUSH HYTHR2 B744 0h 56m

Route Details

Aircraft Information
Primary: Boeing 747-400BCF
Backup: Boeing 767-300BDSF
Date Restrictions
Between:Nov 16, 2019
Dec 31, 2019
Route Data
Distance: 331nm
Sched. Duration: 0h 59m
Avg. Duration: 0h 96m (+38m)
Times Flown: 3
Recm'd Route: OOM5 PXV RRUSH HYTHR2
Planned Altitude: 34,000ft
Origin Wx: KIND 060754Z 24005KT 10SM SCT120 BKN160 21/19 A2994 RMK AO2 SLP131 T02110194 $
Dest. Wx: KMEM 060754Z 17005KT 10SM FEW042 SCT180 BKN250 21/19 A2996 RMK AO2 SLP142 T02060194 $
Notes: SEASONAL FLIGHT | FEDEX SURGE OPS CONTRACT

Financial History
Total Freight: 547,064lbs
Average Load: 182,355lbs/flt
Fuel Used: 64,313lbs
Avg. Fuel Used: 21,438lbs/flt
Fuel Expense: $57,239
Avg. Fuel Expense: $19,080
Avg. Fuel Cost: $0.89/lbs
Total Gross Income: $1,033,951
Pilot Pay: $617
Total Expenses: $111,823
Total Revenue: $863,998
Average Revenue: $344,650.32